Time;durP1;ratioP1;P1;durP2;ratioP2;P2;SDS_P1;SDS_P2;PMS_P1;PMS_P2;Temp;Humidity;BMP_temperature;BMP_pressure;BME280_temperature;BME280_humidity;BME280_pressure;Samples;Min_cycle;Max_cycle;Signal;HPM_P1;HPM_P2
2022/12/08 00:00:45;;;;;;;72.80;31.17;;;;;;;-141.97;97.45;47855.44;5011037;28;20202;-79
2022/12/08 00:03:10;;;;;;;66.77;29.90;;;;;;;-141.97;96.75;47874.69;5011137;28;20171;-81
2022/12/08 00:11:03;;;;;;;67.63;29.77;;;;;;;-141.97;95.42;47845.84;5010937;28;20233;-80
2022/12/08 00:13:28;;;;;;;69.13;30.20;;;;;;;-141.97;94.81;47865.06;5011384;28;20170;-81
2022/12/08 00:15:59;;;;;;;69.27;31.23;;;;;;;-141.97;94.99;47866.97;5011215;28;20174;-80
2022/12/08 00:18:25;;;;;;;75.03;31.30;;;;;;;-141.97;95.95;47861.22;5011049;28;20183;-80
2022/12/08 00:20:57;;;;;;;74.80;32.23;;;;;;;-141.97;95.08;47878.53;5010911;28;20195;-81
2022/12/08 00:23:22;;;;;;;85.20;37.10;;;;;;;-141.97;94.93;47865.06;5011225;28;20182;-80
2022/12/08 00:25:48;;;;;;;79.53;32.90;;;;;;;-141.97;94.68;47886.22;5011167;28;20167;-79
2022/12/08 00:28:13;;;;;;;89.37;39.17;;;;;;;-141.97;94.83;47876.59;5011275;28;20179;-79
2022/12/08 00:30:40;;;;;;;86.37;35.50;;;;;;;-141.97;94.80;47884.28;5011144;28;20171;-80
2022/12/08 00:33:05;;;;;;;87.77;36.27;;;;;;;-141.97;95.18;47880.44;5010887;28;20175;-80
2022/12/08 00:35:30;;;;;;;79.47;32.67;;;;;;;-141.97;95.03;47907.34;5011207;28;20173;-80
2022/12/08 00:37:56;;;;;;;73.70;31.77;;;;;;;-141.97;94.73;47907.34;5010980;28;20171;-80
2022/12/08 00:40:21;;;;;;;68.47;31.13;;;;;;;-141.97;95.15;47899.66;5010787;28;20190;-80
2022/12/08 00:42:47;;;;;;;65.23;28.53;;;;;;;-141.97;95.05;47865.06;5010855;28;20174;-80
2022/12/08 00:45:12;;;;;;;74.10;30.70;;;;;;;-141.97;95.43;47865.06;5010943;28;20171;-80
2022/12/08 00:47:37;;;;;;;72.20;30.17;;;;;;;-141.97;94.98;47878.53;5011040;28;20174;-80
2022/12/08 00:50:04;;;;;;;68.73;29.17;;;;;;;-141.97;94.85;47868.91;5011142;28;20225;-80
2022/12/08 00:52:29;;;;;;;69.43;30.17;;;;;;;-141.97;94.75;47853.53;5011399;28;20174;-80
2022/12/08 00:54:54;;;;;;;73.60;30.77;;;;;;;-141.97;94.06;47868.91;5011019;28;20166;-80
2022/12/08 00:57:20;;;;;;;84.47;33.80;;;;;;;-141.97;94.97;47899.66;5010725;28;20201;-80
2022/12/08 00:59:45;;;;;;;77.53;32.87;;;;;;;-141.97;94.78;47907.34;5010485;28;20586;-81
2022/12/08 01:02:10;;;;;;;67.50;30.97;;;;;;;-141.97;94.43;47874.69;5010638;28;20214;-81
2022/12/08 01:04:37;;;;;;;63.27;27.43;;;;;;;-141.97;93.98;47822.78;5010621;28;20186;-81
2022/12/08 01:07:02;;;;;;;56.23;24.87;;;;;;;-141.97;93.55;47843.91;5013549;28;20171;-81
2022/12/08 01:09:27;;;;;;;58.27;25.30;;;;;;;-141.97;93.26;47872.75;5014238;28;20194;-80
2022/12/08 01:11:53;;;;;;;63.17;26.97;;;;;;;-141.97;93.20;47884.28;5013909;28;20219;-80
2022/12/08 01:14:18;;;;;;;58.53;25.97;;;;;;;-141.97;94.64;47872.75;5014004;28;20216;-80
2022/12/08 01:16:44;;;;;;;52.57;23.77;;;;;;;-141.97;94.50;47866.97;5013956;28;20167;-81
2022/12/08 01:19:11;;;;;;;64.63;27.13;;;;;;;-141.97;94.03;47872.75;5020728;28;20199;-79
2022/12/08 01:21:37;;;;;;;54.27;25.43;;;;;;;-141.97;93.89;47907.34;5017585;28;20678;-80
2022/12/08 01:24:03;;;;;;;58.33;24.30;;;;;;;-141.97;94.32;47895.81;5015077;28;20177;-80
2022/12/08 01:26:28;;;;;;;64.77;25.37;;;;;;;-141.97;94.07;47893.91;5014341;28;20635;-80
2022/12/08 01:28:53;;;;;;;57.67;24.10;;;;;;;-141.97;94.29;47855.44;5014476;28;20175;-79
2022/12/08 01:31:20;;;;;;;59.27;24.80;;;;;;;-141.97;94.24;47888.13;5011876;28;20190;-79
2022/12/08 01:33:46;;;;;;;56.53;25.33;;;;;;;-141.97;94.75;47890.06;5012777;28;20679;-79
2022/12/08 01:36:20;;;;;;;49.67;20.93;;;;;;;-141.97;94.26;47843.91;5013611;28;20249;-81
2022/12/08 01:38:45;;;;;;;46.93;21.17;;;;;;;-141.97;94.70;47870.81;5013821;28;20587;-79
2022/12/08 01:41:19;;;;;;;51.10;22.13;;;;;;;-141.97;95.39;47899.66;5013562;28;20205;-81
2022/12/08 01:43:55;;;;;;;49.73;21.47;;;;;;;-141.97;95.38;47901.59;5013483;28;20187;-81
2022/12/08 01:46:21;;;;;;;47.43;21.20;;;;;;;-141.97;95.37;47890.06;5013442;28;20170;-80
2022/12/08 01:48:47;;;;;;;47.37;20.90;;;;;;;-141.97;95.29;47899.66;5013348;28;20198;-80
2022/12/08 01:51:13;;;;;;;51.20;21.00;;;;;;;-141.97;95.74;47926.56;5013443;28;20175;-80
2022/12/08 01:53:39;;;;;;;49.87;21.50;;;;;;;-141.97;96.92;47853.53;5013763;28;20224;-80
2022/12/08 01:56:14;;;;;;;50.27;21.97;;;;;;;-141.97;97.73;47905.44;5013629;28;20171;-80
2022/12/08 01:58:44;;;;;;;49.87;21.17;;;;;;;-141.97;98.82;47828.53;5013541;28;20176;-80
2022/12/08 02:01:10;;;;;;;50.43;21.87;;;;;;;-141.97;98.56;47913.13;5012385;28;20221;-81
2022/12/08 02:03:36;;;;;;;50.77;21.67;;;;;;;-141.97;98.69;47899.66;5013903;28;20426;-80
2022/12/08 02:06:02;;;;;;;53.37;21.83;;;;;;;-141.97;98.55;47868.91;5012976;28;20406;-80
2022/12/08 02:08:28;;;;;;;52.53;21.03;;;;;;;-141.97;98.38;47870.81;5013022;28;20185;-80
2022/12/08 02:10:54;;;;;;;52.20;21.30;;;;;;;-141.97;99.37;47886.22;5012645;28;20953;-81
2022/12/08 02:13:22;;;;;;;55.03;22.17;;;;;;;-141.97;99.54;47893.91;5013096;28;20174;-80
2022/12/08 02:16:24;;;;;;;50.57;21.93;;;;;;;-141.97;99.70;47915.03;5012991;28;20181;-80
2022/12/08 02:19:19;;;;;;;53.63;22.17;;;;;;;-141.97;99.24;47913.13;4952466;29;20435;-80
2022/12/08 02:22:09;;;;;;;47.43;21.63;;;;;;;-141.97;98.69;47895.81;4950111;29;20479;-81
2022/12/08 02:24:38;;;;;;;49.70;21.40;;;;;;;-141.97;98.94;47866.97;4951663;29;20444;-80
2022/12/08 02:27:03;;;;;;;53.03;22.03;;;;;;;-141.97;98.46;47855.44;4952225;29;20479;-81
2022/12/08 02:29:31;;;;;;;52.90;22.37;;;;;;;-141.97;98.57;47824.69;4952079;29;20885;-81
2022/12/08 02:32:35;;;;;;;47.63;21.17;;;;;;;-141.97;98.19;47913.13;4952174;29;20599;-80
2022/12/08 02:35:30;;;;;;;52.63;20.83;;;;;;;-141.97;97.71;47884.28;4913772;29;20197;-81
2022/12/08 02:38:19;;;;;;;48.37;20.93;;;;;;;-141.97;99.33;47895.81;4913865;29;20430;-80
2022/12/08 02:40:58;;;;;;;50.97;20.70;;;;;;;-141.97;99.98;47911.19;4913743;29;20486;-80
2022/12/08 02:43:44;;;;;;;50.33;20.97;;;;;;;-141.97;100.00;47922.72;4913491;29;20419;-80
2022/12/08 02:46:20;;;;;;;53.00;20.67;;;;;;;-141.97;100.00;47861.22;4914176;29;20205;-80
2022/12/08 02:48:47;;;;;;;47.40;18.77;;;;;;;-141.97;99.91;47888.13;4913760;29;20489;-80
2022/12/08 02:51:12;;;;;;;50.40;20.63;;;;;;;-141.97;100.00;47909.28;4913617;29;21019;-80
2022/12/08 02:53:39;;;;;;;51.17;21.13;;;;;;;-141.97;100.00;47886.22;4897839;29;20521;-81
2022/12/08 02:56:13;;;;;;;47.93;19.30;;;;;;;-141.97;100.00;47899.66;4924744;29;20232;-81
2022/12/08 02:59:19;;;;;;;46.13;20.17;;;;;;;-141.97;99.73;47809.31;4932436;29;21093;-81
2022/12/08 03:02:18;;;;;;;52.70;19.83;;;;;;;-141.97;99.21;47903.50;4932273;29;20501;-82
2022/12/08 03:05:00;;;;;;;49.03;20.13;;;;;;;-141.97;98.51;47932.34;4894726;29;20482;-81
2022/12/08 03:07:48;;;;;;;50.20;20.20;;;;;;;-141.97;97.91;47884.28;4894169;29;20463;-80
2022/12/08 03:10:23;;;;;;;53.90;22.93;;;;;;;-141.97;97.12;47853.53;4901960;29;20422;-80
2022/12/08 03:12:56;;;;;;;53.13;21.57;;;;;;;-141.97;96.03;47893.91;4913276;29;20208;-80
2022/12/08 03:15:22;;;;;;;79.77;32.33;;;;;;;-141.97;95.93;47849.69;4913165;29;20190;-80
2022/12/08 03:17:53;;;;;;;64.17;25.47;;;;;;;-141.97;94.87;47851.59;4913717;29;20170;-80
2022/12/08 03:20:22;;;;;;;56.17;24.07;;;;;;;-141.97;94.34;47886.22;4913104;29;20166;-80
2022/12/08 03:22:51;;;;;;;60.70;25.10;;;;;;;-141.97;93.84;47895.81;4900773;29;20230;-80
2022/12/08 03:25:20;;;;;;;57.10;24.87;;;;;;;-141.97;93.72;47820.84;4894475;29;20175;-80
2022/12/08 03:27:47;;;;;;;67.73;28.27;;;;;;;-141.97;93.79;47855.44;4894078;29;20206;-80
2022/12/08 03:30:12;;;;;;;95.20;35.43;;;;;;;-141.97;94.29;47876.59;4893734;29;20183;-80
2022/12/08 03:32:51;;;;;;;59.90;25.23;;;;;;;-141.97;93.66;47903.50;4901917;29;20174;-81
2022/12/08 03:35:22;;;;;;;58.40;24.93;;;;;;;-141.97;93.36;47868.91;4913154;29;20193;-80
2022/12/08 03:37:48;;;;;;;68.20;27.53;;;;;;;-141.97;93.71;47859.28;4913330;29;20237;-80
2022/12/08 03:40:16;;;;;;;58.83;24.70;;;;;;;-141.97;93.67;47884.28;4913031;29;20186;-81
2022/12/08 03:42:41;;;;;;;64.90;26.27;;;;;;;-141.97;93.71;47865.06;4981244;28;20219;-80
2022/12/08 03:45:08;;;;;;;63.33;26.13;;;;;;;-141.97;94.04;47895.81;4992050;28;20172;-79
2022/12/08 03:47:33;;;;;;;63.07;25.37;;;;;;;-141.97;93.65;47930.41;4992078;28;20190;-80
2022/12/08 03:49:58;;;;;;;70.10;26.77;;;;;;;-141.97;93.60;47872.75;4992158;28;20584;-79
2022/12/08 03:52:24;;;;;;;59.23;23.83;;;;;;;-141.97;94.05;47886.22;5001726;28;20254;-81
2022/12/08 03:54:49;;;;;;;47.50;19.53;;;;;;;-141.97;93.42;47884.28;5012203;28;20709;-80
2022/12/08 03:57:15;;;;;;;54.73;23.10;;;;;;;-141.97;93.61;47884.28;5012417;28;20174;-80
2022/12/08 03:59:40;;;;;;;56.33;23.27;;;;;;;-141.97;94.13;47886.22;5011734;28;20175;-80
2022/12/08 04:02:05;;;;;;;63.10;26.23;;;;;;;-141.97;94.38;47903.50;5011079;28;20238;-80
2022/12/08 04:04:31;;;;;;;70.53;26.73;;;;;;;-141.97;94.39;47870.81;5011054;28;20166;-80
2022/12/08 04:06:56;;;;;;;71.40;27.73;;;;;;;-141.97;94.10;47888.13;5011192;28;20262;-80
2022/12/08 04:09:22;;;;;;;66.50;25.97;;;;;;;-141.97;93.50;47836.22;5009670;28;20178;-81
2022/12/08 04:11:47;;;;;;;59.33;25.33;;;;;;;-141.97;93.10;47788.19;5011294;28;20230;-79
2022/12/08 04:14:13;;;;;;;62.90;27.13;;;;;;;-141.97;93.05;47911.19;5011364;28;20285;-81
2022/12/08 04:16:38;;;;;;;63.33;28.77;;;;;;;-141.97;93.17;47884.28;5011126;28;20570;-80
2022/12/08 04:19:04;;;;;;;68.27;31.20;;;;;;;-141.97;92.93;47884.28;5011065;28;20181;-80
2022/12/08 04:21:29;;;;;;;72.47;31.37;;;;;;;-141.97;92.71;47876.59;4989057;28;20241;-80
2022/12/08 04:23:55;;;;;;;81.60;31.60;;;;;;;-141.97;92.91;47876.59;5007881;28;20194;-79
2022/12/08 04:26:20;;;;;;;116.90;43.67;;;;;;;-141.97;91.96;47897.75;5008330;28;20193;-79
2022/12/08 04:28:46;;;;;;;98.07;39.63;;;;;;;-141.97;91.78;47853.53;5008273;28;20186;-80
2022/12/08 04:31:11;;;;;;;148.30;52.03;;;;;;;-141.97;92.35;47863.13;5008802;28;20564;-80
2022/12/08 04:33:37;;;;;;;115.60;43.00;;;;;;;-141.97;91.75;47880.44;5007695;28;20666;-80
2022/12/08 04:36:04;;;;;;;59.27;26.43;;;;;;;-141.97;91.68;47882.38;5008067;28;20186;-80
2022/12/08 04:38:30;;;;;;;51.00;20.73;;;;;;;-141.97;91.47;47853.53;5008932;28;20244;-80
2022/12/08 04:40:55;;;;;;;47.70;19.80;;;;;;;-141.97;92.25;47922.72;5011063;28;20617;-82
2022/12/08 04:43:20;;;;;;;46.90;19.77;;;;;;;-141.97;92.36;47915.03;5011378;28;20221;-80
2022/12/08 04:45:46;;;;;;;47.13;18.67;;;;;;;-141.97;93.22;47903.50;5012498;28;20191;-80
2022/12/08 04:48:12;;;;;;;42.13;18.53;;;;;;;-141.97;93.20;47859.28;5012286;28;20260;-82
2022/12/08 04:50:43;;;;;;;74.83;31.27;;;;;;;-141.97;92.73;47868.91;5011332;28;20230;-80
2022/12/08 04:53:09;;;;;;;51.57;22.00;;;;;;;-141.97;92.54;47903.50;5011089;28;20273;-80
2022/12/08 04:55:47;;;;;;;52.70;21.10;;;;;;;-141.97;92.61;47878.53;5012339;28;20741;-80
2022/12/08 04:58:14;;;;;;;51.17;21.73;;;;;;;-141.97;92.52;47888.13;5012043;28;20214;-80
2022/12/08 05:00:40;;;;;;;59.77;26.10;;;;;;;-141.97;92.44;47897.75;5011588;28;20189;-81
2022/12/08 05:03:06;;;;;;;57.43;24.10;;;;;;;-141.97;92.83;47853.53;5011309;28;20293;-79
2022/12/08 05:05:31;;;;;;;63.87;25.40;;;;;;;-141.97;92.99;47868.91;5011488;28;20175;-80
2022/12/08 05:07:57;;;;;;;54.60;22.47;;;;;;;-141.97;93.46;47901.59;5011521;28;20210;-80
2022/12/08 05:10:22;;;;;;;56.03;24.93;;;;;;;-141.97;93.89;47842.00;4994276;28;20214;-78
2022/12/08 05:12:48;;;;;;;93.60;40.50;;;;;;;-141.97;94.36;47891.97;5011137;28;20190;-80
2022/12/08 05:15:13;;;;;;;91.47;41.10;;;;;;;-141.97;94.61;47872.75;5011644;28;20269;-81
2022/12/08 05:17:39;;;;;;;73.00;33.03;;;;;;;-141.97;94.05;47872.75;5012098;28;20639;-80
2022/12/08 05:20:05;;;;;;;53.17;22.70;;;;;;;-141.97;93.72;47865.06;5012020;28;20211;-79
2022/12/08 05:22:30;;;;;;;59.13;24.27;;;;;;;-141.97;93.05;47947.72;4998993;28;20246;-81
2022/12/08 05:24:56;;;;;;;61.60;26.47;;;;;;;-141.97;94.35;47907.34;5011832;28;20246;-79
2022/12/08 05:27:21;;;;;;;61.67;27.00;;;;;;;-141.97;94.74;47920.81;5013122;28;20728;-80
2022/12/08 05:29:47;;;;;;;62.20;27.17;;;;;;;-141.97;95.97;47868.91;5011106;28;20183;-79
2022/12/08 05:32:12;;;;;;;59.53;25.40;;;;;;;-141.97;95.93;47838.16;5011450;28;20650;-79
2022/12/08 05:34:38;;;;;;;49.20;21.43;;;;;;;-141.97;95.59;47880.44;5011180;28;20190;-80
2022/12/08 05:37:03;;;;;;;51.17;22.53;;;;;;;-141.97;96.15;47872.75;5010690;28;20194;-80
2022/12/08 05:39:28;;;;;;;56.40;23.70;;;;;;;-141.97;96.00;47882.38;5011470;28;20194;-80
2022/12/08 05:41:54;;;;;;;56.33;24.30;;;;;;;-141.97;97.21;47865.06;5011542;28;20233;-80
2022/12/08 05:44:19;;;;;;;55.13;22.47;;;;;;;-141.97;96.89;47899.66;5009809;28;20573;-80
2022/12/08 05:46:45;;;;;;;49.03;21.23;;;;;;;-141.97;96.69;47913.13;5011450;28;20214;-80
2022/12/08 05:49:10;;;;;;;49.70;19.97;;;;;;;-141.97;96.27;47859.28;5010499;28;20183;-80
2022/12/08 05:51:36;;;;;;;54.23;22.53;;;;;;;-141.97;95.90;47851.59;5009579;28;20281;-80
2022/12/08 05:54:01;;;;;;;57.00;23.57;;;;;;;-141.97;96.10;47884.28;5010414;28;20193;-80
2022/12/08 05:56:26;;;;;;;56.10;24.23;;;;;;;-141.97;96.38;47870.81;5011520;28;20631;-80
2022/12/08 05:58:52;;;;;;;255.77;116.17;;;;;;;-141.97;96.77;47882.38;5010188;28;20212;-80
2022/12/08 06:01:18;;;;;;;80.43;29.47;;;;;;;-141.97;97.19;47882.38;5011418;28;20210;-80
2022/12/08 06:03:44;;;;;;;58.63;24.10;;;;;;;-141.97;97.17;47901.59;5010147;28;20190;-80
2022/12/08 06:06:09;;;;;;;55.80;22.30;;;;;;;-141.97;96.42;47897.75;5010420;28;20191;-80
2022/12/08 06:08:34;;;;;;;51.83;22.67;;;;;;;-141.97;96.28;47872.75;5010973;28;20265;-81
2022/12/08 06:11:00;;;;;;;62.63;23.57;;;;;;;-141.97;95.64;47855.44;5010648;28;20284;-79
2022/12/08 06:13:25;;;;;;;71.47;31.37;;;;;;;-141.97;95.33;47884.28;5009502;28;20536;-80
2022/12/08 06:15:50;;;;;;;226.10;72.57;;;;;;;-141.97;95.58;47890.06;5010362;28;20190;-80
2022/12/08 06:18:16;;;;;;;159.27;59.03;;;;;;;-141.97;95.70;47899.66;5010232;28;20221;-81
2022/12/08 06:20:41;;;;;;;149.47;57.10;;;;;;;-141.97;95.37;47901.59;5011157;28;20178;-80
2022/12/08 06:23:07;;;;;;;166.20;60.17;;;;;;;-141.97;94.91;47882.38;4998758;28;20242;-80
2022/12/08 06:25:32;;;;;;;95.93;41.23;;;;;;;-141.97;94.87;47830.47;5010136;28;20183;-80
2022/12/08 06:27:57;;;;;;;77.90;35.07;;;;;;;-141.97;93.95;47888.13;5010302;28;20218;-80
2022/12/08 06:30:23;;;;;;;69.57;33.17;;;;;;;-141.97;93.78;47861.22;5010101;28;20250;-79
2022/12/08 06:32:48;;;;;;;85.37;39.60;;;;;;;-141.97;93.36;47930.41;5010153;28;20179;-80
2022/12/08 06:35:14;;;;;;;151.67;75.23;;;;;;;-141.97;93.36;47876.59;5009211;28;20175;-80
2022/12/08 06:37:39;;;;;;;151.70;69.97;;;;;;;-141.97;93.52;47853.53;5010368;28;20233;-80
2022/12/08 06:40:05;;;;;;;118.27;52.10;;;;;;;-141.97;93.37;47876.59;5011230;28;20186;-80
2022/12/08 06:42:42;;;;;;;229.70;108.53;;;;;;;-141.97;92.87;47828.53;5010005;28;20214;-80
2022/12/08 06:45:09;;;;;;;188.83;82.83;;;;;;;-141.97;93.60;47915.03;5009396;28;20670;-80
2022/12/08 06:47:34;;;;;;;367.00;155.43;;;;;;;-141.97;94.31;47861.22;5011420;28;20191;-80
2022/12/08 06:49:59;;;;;;;107.00;47.87;;;;;;;-141.97;94.40;47868.91;5013433;28;20190;-82
2022/12/08 06:52:25;;;;;;;97.37;41.40;;;;;;;-141.97;95.50;47945.81;5010324;28;20179;-81
2022/12/08 06:54:50;;;;;;;208.17;107.07;;;;;;;-141.97;96.32;47851.59;5009917;28;20186;-80
2022/12/08 06:57:17;;;;;;;144.13;68.53;;;;;;;-141.97;96.73;47884.28;5010349;28;20274;-82
2022/12/08 06:59:42;;;;;;;79.17;34.63;;;;;;;-141.97;97.48;47953.50;5000408;28;20285;-83
2022/12/08 07:02:08;;;;;;;116.87;49.13;;;;;;;-141.97;98.13;47876.59;5008655;28;20289;-82
2022/12/08 07:04:34;;;;;;;74.90;32.97;;;;;;;-141.97;96.83;47913.13;5008236;28;20186;-82
2022/12/08 07:06:59;;;;;;;97.10;43.67;;;;;;;-141.97;96.35;47888.13;5008749;28;20182;-84
2022/12/08 07:09:24;;;;;;;77.50;34.60;;;;;;;-141.97;96.14;47868.91;5007947;28;20330;-84
2022/12/08 07:11:50;;;;;;;73.43;33.10;;;;;;;-141.97;95.28;47857.38;5007691;28;20288;-84
2022/12/08 07:14:15;;;;;;;105.37;43.10;;;;;;;-141.97;95.45;47832.38;4991277;28;20191;-83
2022/12/08 07:16:40;;;;;;;125.60;49.83;;;;;;;-141.97;97.05;47878.53;5009806;28;20214;-86
2022/12/08 07:19:06;;;;;;;79.47;35.07;;;;;;;-141.97;97.46;47893.91;5009056;28;20245;-85
2022/12/08 07:21:31;;;;;;;68.60;30.13;;;;;;;-141.97;96.87;47890.06;5007152;28;20213;-80
2022/12/08 07:23:57;;;;;;;77.27;36.17;;;;;;;-141.97;97.01;47890.06;4997910;28;20285;-82
2022/12/08 07:26:22;;;;;;;141.00;66.73;;;;;;;-141.97;97.25;47884.28;5007458;28;20197;-83
2022/12/08 07:28:47;;;;;;;93.07;44.80;;;;;;;-141.97;97.45;47832.38;5007558;28;20198;-81
2022/12/08 07:31:18;;;;;;;77.70;36.27;;;;;;;-141.97;96.64;47895.81;5007402;28;20194;-81
2022/12/08 07:33:44;;;;;;;67.07;30.60;;;;;;;-141.97;96.38;47843.91;4990825;28;20233;-82
2022/12/08 07:36:09;;;;;;;51.90;22.90;;;;;;;-141.97;95.97;47857.38;5012643;28;20543;-82
2022/12/08 07:38:35;;;;;;;46.30;21.03;;;;;;;-141.97;96.46;47857.38;5014609;28;20210;-81
2022/12/08 07:41:01;;;;;;;57.47;25.17;;;;;;;-141.97;98.40;47934.25;5010555;28;20298;-82
2022/12/08 07:43:26;;;;;;;73.47;33.20;;;;;;;-141.97;98.58;47903.50;5011487;28;20186;-82
2022/12/08 07:45:51;;;;;;;76.40;33.80;;;;;;;-141.97;97.74;47888.13;5013510;28;20193;-81
2022/12/08 07:48:17;;;;;;;82.90;38.93;;;;;;;-141.97;96.87;47878.53;5011574;28;20697;-82
2022/12/08 07:50:43;;;;;;;89.53;42.87;;;;;;;-141.97;96.31;47884.28;5009050;28;20196;-82
2022/12/08 07:53:08;;;;;;;100.07;47.33;;;;;;;-141.97;95.48;47851.59;5008684;28;20182;-82
2022/12/08 07:55:38;;;;;;;66.97;31.80;;;;;;;-141.97;94.12;47868.91;5009502;28;20709;-83
2022/12/08 07:58:04;;;;;;;78.00;33.60;;;;;;;-141.97;93.59;47874.69;5009212;28;20254;-81
2022/12/08 08:00:29;;;;;;;74.33;33.97;;;;;;;-141.97;93.77;47901.59;5009244;28;20269;-83
2022/12/08 08:02:54;;;;;;;91.93;40.77;;;;;;;-141.97;95.25;47890.06;5007760;28;20256;-81
2022/12/08 08:05:21;;;;;;;158.47;66.30;;;;;;;-141.97;95.39;47857.38;5007814;28;20641;-81
2022/12/08 08:07:47;;;;;;;248.20;93.07;;;;;;;-141.97;96.09;47888.13;5008183;28;20190;-80
2022/12/08 08:10:12;;;;;;;214.57;97.17;;;;;;;-141.97;94.90;47886.22;5008986;28;20551;-80
2022/12/08 08:12:38;;;;;;;70.40;31.53;;;;;;;-141.97;96.01;47872.75;5007218;28;20237;-79
2022/12/08 08:15:06;;;;;;;198.80;70.13;;;;;;;-141.97;96.93;47878.53;5010536;28;20193;-81
2022/12/08 08:17:32;;;;;;;158.20;58.40;;;;;;;-141.97;96.44;47868.91;5013118;28;20193;-80
2022/12/08 08:19:58;;;;;;;155.97;57.63;;;;;;;-141.97;95.68;47888.13;5012326;28;20281;-80
2022/12/08 08:22:25;;;;;;;273.77;126.87;;;;;;;-141.97;95.02;47907.34;4999831;28;20288;-80
2022/12/08 08:24:50;;;;;;;72.13;31.07;;;;;;;-141.97;94.27;47857.38;5012433;28;20185;-81
2022/12/08 08:27:15;;;;;;;46.73;20.87;;;;;;;-141.97;94.99;47895.81;5012111;28;20182;-81
2022/12/08 08:29:41;;;;;;;57.23;25.03;;;;;;;-141.97;96.29;47861.22;5011998;28;20187;-81
2022/12/08 08:32:06;;;;;;;62.03;26.73;;;;;;;-141.97;96.91;47895.81;5012620;28;20210;-81
2022/12/08 08:34:32;;;;;;;80.23;35.27;;;;;;;-141.97;97.27;47909.28;5010892;28;20191;-81
2022/12/08 08:36:57;;;;;;;87.70;41.83;;;;;;;-141.97;97.56;47911.19;5011612;28;20285;-81
2022/12/08 08:39:22;;;;;;;77.83;35.87;;;;;;;-141.97;96.02;47865.06;5012283;28;20639;-81
2022/12/08 08:41:48;;;;;;;76.67;33.40;;;;;;;-141.97;94.92;47903.50;5011208;28;20305;-82
2022/12/08 08:44:14;;;;;;;77.37;34.50;;;;;;;-141.97;92.66;47872.75;5011384;28;20244;-81
2022/12/08 08:46:40;;;;;;;65.80;30.20;;;;;;;-141.97;92.80;47924.66;5011985;28;20229;-80
2022/12/08 08:49:05;;;;;;;88.47;39.47;;;;;;;-141.97;92.29;47882.38;5010592;28;20285;-82
2022/12/08 08:51:31;;;;;;;116.17;48.77;;;;;;;-141.97;91.32;47882.38;5010685;28;20187;-81
2022/12/08 08:53:57;;;;;;;81.80;36.80;;;;;;;-141.97;90.48;47901.59;5012024;28;20179;-81
2022/12/08 08:56:23;;;;;;;84.03;37.93;;;;;;;-141.97;89.78;47853.53;5011092;28;20236;-81
2022/12/08 08:58:49;;;;;;;88.10;41.00;;;;;;;-141.97;89.76;47886.22;5012005;28;20198;-80
2022/12/08 09:01:21;;;;;;;89.67;40.57;;;;;;;-141.97;89.01;47865.06;5011782;28;20211;-82
2022/12/08 09:03:47;;;;;;;87.43;40.03;;;;;;;-141.97;88.40;47888.13;5012114;28;20178;-80
2022/12/08 09:06:14;;;;;;;71.50;32.47;;;;;;;-141.97;87.74;47903.50;5011653;28;20186;-81
2022/12/08 09:08:40;;;;;;;66.80;30.80;;;;;;;-141.97;87.12;47868.91;5011881;28;20938;-81
2022/12/08 09:11:05;;;;;;;69.57;29.27;;;;;;;-141.97;87.36;47866.97;4993970;28;20225;-81
2022/12/08 09:13:31;;;;;;;75.83;34.23;;;;;;;-141.97;86.10;47909.28;5011079;28;20573;-81
2022/12/08 09:15:56;;;;;;;159.40;79.60;;;;;;;-141.97;86.60;47857.38;5011521;28;20567;-81
2022/12/08 09:18:22;;;;;;;180.23;82.70;;;;;;;-141.97;87.62;47915.03;5011686;28;20197;-82
2022/12/08 09:20:47;;;;;;;88.80;40.33;;;;;;;-141.97;88.70;47888.13;5011215;28;20182;-82
2022/12/08 09:23:13;;;;;;;71.43;30.93;;;;;;;-141.97;88.42;47880.44;4999056;28;20377;-81
2022/12/08 09:25:42;;;;;;;80.63;34.30;;;;;;;-141.97;87.96;47870.81;5011090;28;20237;-81
2022/12/08 09:28:07;;;;;;;88.37;37.87;;;;;;;-141.97;88.12;47938.09;5010747;28;20277;-80
2022/12/08 09:30:33;;;;;;;181.70;79.70;;;;;;;-141.97;88.33;47874.69;5010998;28;20663;-80
2022/12/08 09:32:58;;;;;;;109.67;47.17;;;;;;;-141.97;88.98;47876.59;5010466;28;20206;-81
2022/12/08 09:35:23;;;;;;;75.43;31.80;;;;;;;-141.97;89.36;47882.38;5011156;28;20731;-82
2022/12/08 09:37:49;;;;;;;136.40;61.63;;;;;;;-141.97;88.54;47907.34;5010750;28;20757;-80
2022/12/08 09:40:18;;;;;;;107.70;44.30;;;;;;;-141.97;87.44;47838.16;5009897;28;20678;-81
2022/12/08 09:42:50;;;;;;;72.47;29.17;;;;;;;-141.97;85.82;47868.91;5009614;28;20234;-80
2022/12/08 09:45:17;;;;;;;72.73;28.63;;;;;;;-141.97;84.21;47888.13;5010809;28;20237;-82
2022/12/08 09:47:47;;;;;;;81.07;31.77;;;;;;;-141.97;84.22;47899.66;5010415;28;20532;-79
2022/12/08 09:50:27;;;;;;;71.77;27.57;;;;;;;-141.97;82.97;47891.97;5011555;28;20191;-80
2022/12/08 09:53:22;;;;;;;71.70;26.40;;;;;;;-141.97;83.46;47888.13;5010343;28;20178;-80
2022/12/08 09:55:55;;;;;;;82.20;33.13;;;;;;;-141.97;83.50;47895.81;5010830;28;20183;-81
2022/12/08 09:58:31;;;;;;;65.37;26.97;;;;;;;-141.97;82.98;47890.06;5010850;28;20229;-81
2022/12/08 10:00:56;;;;;;;80.07;30.10;;;;;;;-141.97;83.38;47890.06;5010627;28;20581;-82
2022/12/08 10:03:26;;;;;;;59.03;24.27;;;;;;;-141.97;82.71;47872.75;5010394;28;20174;-82
2022/12/08 10:06:06;;;;;;;60.10;26.53;;;;;;;-141.97;83.38;47895.81;5011267;28;20183;-80
2022/12/08 10:08:44;;;;;;;76.47;30.97;;;;;;;-141.97;83.15;47878.53;4992624;28;20277;-80
2022/12/08 10:11:15;;;;;;;84.43;36.13;;;;;;;-141.97;82.43;47861.22;5009439;28;20221;-81
2022/12/08 10:14:42;;;;;;;69.60;31.70;;;;;;;-141.97;82.81;47884.28;5010178;28;20567;-81
2022/12/08 10:17:24;;;;;;;66.37;27.03;;;;;;;-141.97;81.92;47876.59;4874456;29;20286;-83
2022/12/08 10:19:56;;;;;;;57.70;23.87;;;;;;;-141.97;81.89;47849.69;4876277;29;20274;-82
2022/12/08 10:22:24;;;;;;;62.47;26.17;;;;;;;-141.97;81.73;47899.66;4875423;29;20897;-81
2022/12/08 10:25:19;;;;;;;66.93;25.33;;;;;;;-141.97;81.80;47895.81;4863796;29;20243;-82
2022/12/08 10:27:50;;;;;;;62.77;25.73;;;;;;;-141.97;82.05;47876.59;4875402;29;20203;-81
2022/12/08 10:30:20;;;;;;;67.20;28.20;;;;;;;-141.97;81.89;47890.06;4875043;29;20191;-82
2022/12/08 10:32:48;;;;;;;70.10;28.90;;;;;;;-141.97;82.51;47849.69;4872827;29;20207;-82
2022/12/08 10:35:15;;;;;;;69.33;29.63;;;;;;;-141.97;82.69;47993.84;4870999;29;20200;-82
2022/12/08 10:37:54;;;;;;;76.80;30.17;;;;;;;-141.97;83.20;47861.22;4872379;29;20294;-81
2022/12/08 10:40:20;;;;;;;59.83;25.23;;;;;;;-141.97;82.40;47888.13;4862788;29;20208;-81
2022/12/08 10:42:47;;;;;;;68.07;28.03;;;;;;;-141.97;81.98;47913.13;4867155;29;20263;-81
2022/12/08 10:45:27;;;;;;;66.40;27.50;;;;;;;-141.97;81.71;47909.28;4873999;29;20193;-82
2022/12/08 10:47:58;;;;;;;69.60;27.50;;;;;;;-141.97;81.63;47876.59;4873751;29;20194;-82
2022/12/08 10:50:40;;;;;;;60.23;24.33;;;;;;;-141.97;81.08;47907.34;4873850;29;20973;-81
2022/12/08 10:53:08;;;;;;;69.00;27.80;;;;;;;-141.97;80.41;47878.53;4951055;28;20634;-83
2022/12/08 10:55:46;;;;;;;62.10;25.80;;;;;;;-141.97;80.96;47907.34;5009832;28;20666;-81
2022/12/08 10:58:28;;;;;;;63.70;25.00;;;;;;;-141.97;81.19;47866.97;5009572;28;20190;-81
2022/12/08 11:00:59;;;;;;;63.67;26.60;;;;;;;-141.97;81.47;47855.44;5009921;28;20214;-81
2022/12/08 11:03:30;;;;;;;73.50;29.63;;;;;;;-141.97;81.75;47826.63;5009429;28;20197;-82
2022/12/08 11:05:59;;;;;;;180.73;64.90;;;;;;;-141.97;82.00;47899.66;5009920;28;20197;-82
2022/12/08 11:08:26;;;;;;;77.33;33.07;;;;;;;-141.97;81.76;47886.22;5009943;28;20178;-82
2022/12/08 11:10:52;;;;;;;72.67;32.10;;;;;;;-141.97;81.98;47870.81;5009718;28;20607;-82